createdAt,value
2023-03-16T00:00:16.550Z,101499.00
2023-03-16T00:02:43.747Z,101480.00
2023-03-16T00:05:12.903Z,101490.00
2023-03-16T00:07:42.145Z,101494.00
2023-03-16T00:10:12.492Z,101488.00
2023-03-16T00:12:39.549Z,101494.00
2023-03-16T00:15:07.087Z,101502.00
2023-03-16T00:17:34.837Z,101500.00
2023-03-16T00:20:06.773Z,101498.00
2023-03-16T00:22:33.978Z,101497.00
2023-03-16T00:25:01.988Z,101489.00
2023-03-16T00:27:29.544Z,101493.00
2023-03-16T00:29:56.880Z,101486.00
2023-03-16T00:32:26.463Z,101485.00
2023-03-16T00:34:53.376Z,101489.00
2023-03-16T00:37:23.329Z,101504.00
2023-03-16T00:39:51.501Z,101503.00
2023-03-16T00:42:19.531Z,101495.00
2023-03-16T00:44:46.358Z,101497.00
2023-03-16T00:47:14.544Z,101500.00
2023-03-16T00:49:44.961Z,101492.00
2023-03-16T00:52:16.144Z,101490.00
2023-03-16T00:54:44.541Z,101492.00
2023-03-16T00:57:13.773Z,101502.00
2023-03-16T00:59:40.876Z,101498.00
2023-03-16T01:02:08.514Z,101492.00
2023-03-16T01:04:36.055Z,101499.00
2023-03-16T01:07:06.467Z,101509.00
2023-03-16T01:09:36.880Z,101500.00
2023-03-16T01:12:06.226Z,101503.00
2023-03-16T01:14:34.940Z,101491.00
2023-03-16T01:17:02.676Z,101498.00
2023-03-16T01:19:29.992Z,101496.00
2023-03-16T01:21:56.838Z,101501.00
2023-03-16T01:24:24.300Z,101505.00
2023-03-16T01:26:51.224Z,101516.00
2023-03-16T01:29:18.147Z,101501.00
2023-03-16T01:31:44.928Z,101505.00
2023-03-16T01:34:16.636Z,101507.00
2023-03-16T01:36:46.176Z,101498.00
2023-03-16T01:39:13.336Z,101497.00
2023-03-16T01:41:41.983Z,101500.00
2023-03-16T01:44:22.582Z,101493.00
2023-03-16T01:46:49.809Z,101494.00
2023-03-16T01:49:21.066Z,101489.00
2023-03-16T01:51:56.643Z,101493.00
2023-03-16T01:54:30.056Z,101484.00
2023-03-16T01:57:08.043Z,101500.00
2023-03-16T01:59:44.585Z,101495.00
2023-03-16T02:02:13.677Z,101501.00
2023-03-16T02:04:42.207Z,101497.00
2023-03-16T02:07:09.595Z,101498.00
2023-03-16T02:09:42.800Z,101500.00
2023-03-16T02:12:10.499Z,101493.00
2023-03-16T02:14:37.271Z,101493.00
2023-03-16T02:17:04.067Z,101495.00
2023-03-16T02:19:53.212Z,101502.00
2023-03-16T02:22:20.449Z,101502.00
2023-03-16T02:24:47.260Z,101495.00
2023-03-16T02:27:17.967Z,101494.00
2023-03-16T02:29:52.901Z,101503.00
2023-03-16T02:32:21.816Z,101493.00
2023-03-16T02:34:48.731Z,101499.00
2023-03-16T02:37:15.553Z,101495.00
2023-03-16T02:39:45.179Z,101502.00
2023-03-16T02:42:13.762Z,101499.00
2023-03-16T02:44:43.676Z,101494.00
2023-03-16T02:47:47.380Z,101481.00
2023-03-16T02:50:14.525Z,101494.00
2023-03-16T02:52:41.855Z,101497.00
2023-03-16T02:55:10.925Z,101497.00
2023-03-16T02:57:37.746Z,101494.00
2023-03-16T03:00:25.447Z,101494.00
2023-03-16T03:02:52.680Z,101510.00
2023-03-16T03:05:19.931Z,101500.00
2023-03-16T03:07:47.287Z,101496.00
2023-03-16T03:10:14.140Z,101492.00
2023-03-16T03:12:40.996Z,101497.00
2023-03-16T03:15:08.884Z,101497.00
2023-03-16T03:17:37.473Z,101498.00
2023-03-16T03:20:13.845Z,101503.00
2023-03-16T03:22:40.802Z,101498.00
2023-03-16T03:25:08.866Z,101495.00
2023-03-16T03:27:36.101Z,101494.00
2023-03-16T03:30:04.534Z,101503.00
2023-03-16T03:32:31.416Z,101495.00
2023-03-16T03:34:58.327Z,101497.00
2023-03-16T03:37:25.495Z,101493.00
2023-03-16T03:39:53.457Z,101494.00
2023-03-16T03:42:20.509Z,101497.00
2023-03-16T03:44:47.330Z,101487.00
2023-03-16T03:47:14.096Z,101490.00
2023-03-16T03:49:41.059Z,101487.00
2023-03-16T03:52:08.194Z,101501.00
2023-03-16T03:54:35.146Z,101504.00
2023-03-16T03:57:02.100Z,101507.00
2023-03-16T03:59:29.056Z,101499.00
2023-03-16T04:01:55.945Z,101497.00
2023-03-16T04:04:22.804Z,101506.00
2023-03-16T04:06:51.265Z,101494.00
2023-03-16T04:09:18.126Z,101513.00
2023-03-16T04:11:45.073Z,101526.00
2023-03-16T04:14:11.851Z,101505.00
2023-03-16T04:16:38.664Z,101493.00
2023-03-16T04:19:05.484Z,101509.00
2023-03-16T04:21:32.342Z,101512.00
2023-03-16T04:23:59.214Z,101507.00
2023-03-16T04:26:26.038Z,101510.00
2023-03-16T04:28:52.877Z,101522.00
2023-03-16T04:31:19.786Z,101526.00
2023-03-16T04:33:46.763Z,101515.00
2023-03-16T04:36:13.851Z,101525.00
2023-03-16T04:38:42.078Z,101518.00
2023-03-16T04:41:09.807Z,101519.00
2023-03-16T04:43:36.704Z,101518.00
2023-03-16T04:46:04.698Z,101512.00
2023-03-16T04:48:34.836Z,101516.00
2023-03-16T04:51:03.806Z,101513.00
2023-03-16T04:53:31.920Z,101516.00
2023-03-16T04:55:59.013Z,101498.00
2023-03-16T04:58:25.851Z,101499.00
2023-03-16T05:00:53.776Z,101497.00
2023-03-16T05:03:21.660Z,101497.00
2023-03-16T05:05:49.825Z,101510.00
2023-03-16T05:08:16.997Z,101517.00
2023-03-16T20:10:24.696Z,101123.00
2023-03-16T20:12:55.437Z,101112.00
2023-03-16T20:15:23.131Z,101092.00
2023-03-16T20:17:50.630Z,101112.00
2023-03-16T20:20:19.892Z,101112.00
2023-03-16T20:22:47.078Z,101084.00
2023-03-16T20:37:23.941Z,101092.00
2023-03-16T20:39:54.199Z,101077.00
2023-03-16T20:42:32.215Z,101066.00
2023-03-16T20:44:59.552Z,101075.00
2023-03-16T20:47:27.197Z,101096.00
2023-03-16T20:49:57.246Z,101080.00
2023-03-16T20:52:28.307Z,101057.00
2023-03-16T20:54:57.539Z,101065.00
2023-03-16T20:57:27.079Z,101076.00
2023-03-16T20:59:55.606Z,101068.00
2023-03-16T21:02:29.924Z,101061.00
2023-03-16T21:04:58.320Z,101069.00
2023-03-16T21:07:25.241Z,101074.00
2023-03-16T21:09:52.167Z,101056.00
2023-03-16T21:12:26.834Z,101045.00
2023-03-16T21:14:54.197Z,101047.00
2023-03-16T21:17:32.403Z,101051.00
2023-03-16T21:20:00.251Z,101041.00
2023-03-16T21:22:45.077Z,101052.00
2023-03-16T21:25:28.023Z,101056.00
2023-03-16T21:27:56.077Z,101047.00
2023-03-16T21:30:38.517Z,101039.00
2023-03-16T21:33:16.822Z,101020.00
2023-03-16T21:35:43.735Z,101026.00
2023-03-16T21:38:16.689Z,101031.00
2023-03-16T21:40:44.545Z,101026.00
2023-03-16T21:43:12.112Z,101035.00
2023-03-16T21:45:39.406Z,101018.00
2023-03-16T21:48:06.478Z,101025.00
2023-03-16T21:50:36.785Z,101020.00
2023-03-16T21:53:04.378Z,101014.00
2023-03-16T21:55:31.575Z,101017.00
2023-03-16T21:57:59.897Z,101020.00
2023-03-16T22:00:29.178Z,101026.00
2023-03-16T22:03:00.311Z,101026.00
2023-03-16T22:05:30.432Z,101017.00
2023-03-16T22:07:58.671Z,100994.00
2023-03-16T22:10:28.513Z,100999.00
2023-03-16T22:12:56.934Z,100987.00
2023-03-16T22:15:27.624Z,100986.00
2023-03-16T22:17:55.429Z,100969.00
2023-03-16T22:20:26.998Z,100983.00
2023-03-16T22:22:57.554Z,100982.00
2023-03-16T22:25:25.238Z,100965.00
2023-03-16T22:27:52.413Z,100959.00
2023-03-16T22:30:24.841Z,100961.00
2023-03-16T22:32:55.345Z,100956.00
2023-03-16T22:35:31.626Z,100966.00
2023-03-16T22:38:00.529Z,100955.00
2023-03-16T22:40:32.709Z,100941.00
2023-03-16T22:43:05.550Z,100941.00
2023-03-16T22:45:33.690Z,100940.00
2023-03-16T22:48:07.654Z,100952.00
2023-03-16T22:50:35.511Z,100938.00
2023-03-16T22:53:05.223Z,100936.00
2023-03-16T22:55:36.666Z,100925.00
2023-03-16T22:58:25.660Z,100918.00
2023-03-16T23:00:52.674Z,100914.00
2023-03-16T23:03:21.117Z,100915.00
2023-03-16T23:05:48.318Z,100905.00
2023-03-16T23:08:17.601Z,100898.00
2023-03-16T23:10:45.132Z,100911.00
2023-03-16T23:13:15.617Z,100910.00
2023-03-16T23:15:44.146Z,100894.00
2023-03-16T23:18:19.840Z,100914.00
2023-03-16T23:20:47.324Z,100912.00
2023-03-16T23:23:16.000Z,100911.00
2023-03-16T23:25:43.590Z,100905.00
2023-03-16T23:28:21.410Z,100907.00
2023-03-16T23:30:49.491Z,100911.00
2023-03-16T23:33:16.752Z,100901.00
2023-03-16T23:35:46.711Z,100912.00
2023-03-16T23:38:13.874Z,100913.00
